sensor_id;sensor_type;location;lat;lon;timestamp;P1;durP1;ratioP1;P2;durP2;ratioP2
59161;SDS011;44942;48.936;8.260;2024-03-02T00:04:58;4.43;;;3.90;;
59161;SDS011;44942;48.936;8.260;2024-03-02T00:09:59;6.77;;;4.03;;
59161;SDS011;44942;48.936;8.260;2024-03-02T00:15:00;5.47;;;3.60;;
59161;SDS011;44942;48.936;8.260;2024-03-02T00:20:02;4.22;;;3.30;;
59161;SDS011;44942;48.936;8.260;2024-03-02T00:25:05;4.60;;;3.53;;
59161;SDS011;44942;48.936;8.260;2024-03-02T00:30:35;4.13;;;3.60;;
59161;SDS011;44942;48.936;8.260;2024-03-02T00:35:35;4.85;;;3.72;;
59161;SDS011;44942;48.936;8.260;2024-03-02T00:40:36;4.85;;;3.38;;
59161;SDS011;44942;48.936;8.260;2024-03-02T00:45:37;3.73;;;3.30;;
59161;SDS011;44942;48.936;8.260;2024-03-02T00:50:40;3.75;;;3.30;;
59161;SDS011;44942;48.936;8.260;2024-03-02T00:55:40;5.13;;;4.20;;
59161;SDS011;44942;48.936;8.260;2024-03-02T01:00:44;4.68;;;4.10;;
59161;SDS011;44942;48.936;8.260;2024-03-02T01:05:45;4.30;;;3.88;;
59161;SDS011;44942;48.936;8.260;2024-03-02T01:10:45;5.03;;;3.75;;
59161;SDS011;44942;48.936;8.260;2024-03-02T01:15:46;3.87;;;3.37;;
59161;SDS011;44942;48.936;8.260;2024-03-02T01:20:47;3.97;;;3.43;;
59161;SDS011;44942;48.936;8.260;2024-03-02T01:25:47;3.50;;;3.20;;
59161;SDS011;44942;48.936;8.260;2024-03-02T01:30:48;3.67;;;3.27;;
59161;SDS011;44942;48.936;8.260;2024-03-02T01:35:49;4.03;;;3.33;;
59161;SDS011;44942;48.936;8.260;2024-03-02T01:40:49;4.50;;;3.13;;
59161;SDS011;44942;48.936;8.260;2024-03-02T01:45:51;3.10;;;2.80;;
59161;SDS011;44942;48.936;8.260;2024-03-02T01:55:53;3.10;;;2.80;;
59161;SDS011;44942;48.936;8.260;2024-03-02T02:00:54;3.47;;;3.00;;
59161;SDS011;44942;48.936;8.260;2024-03-02T02:05:54;3.77;;;2.90;;
59161;SDS011;44942;48.936;8.260;2024-03-02T02:10:55;3.57;;;3.10;;
59161;SDS011;44942;48.936;8.260;2024-03-02T02:15:56;3.20;;;2.90;;
59161;SDS011;44942;48.936;8.260;2024-03-02T02:21:05;4.07;;;2.88;;
59161;SDS011;44942;48.936;8.260;2024-03-02T02:26:05;3.23;;;2.87;;
59161;SDS011;44942;48.936;8.260;2024-03-02T02:31:06;3.20;;;2.80;;
59161;SDS011;44942;48.936;8.260;2024-03-02T02:36:06;2.67;;;2.47;;
59161;SDS011;44942;48.936;8.260;2024-03-02T02:41:07;2.60;;;2.40;;
59161;SDS011;44942;48.936;8.260;2024-03-02T02:46:08;2.80;;;2.50;;
59161;SDS011;44942;48.936;8.260;2024-03-02T02:51:08;3.07;;;2.70;;
59161;SDS011;44942;48.936;8.260;2024-03-02T02:56:09;3.00;;;2.60;;
59161;SDS011;44942;48.936;8.260;2024-03-02T03:01:09;2.80;;;2.60;;
59161;SDS011;44942;48.936;8.260;2024-03-02T03:06:10;2.72;;;2.53;;
59161;SDS011;44942;48.936;8.260;2024-03-02T03:11:11;3.40;;;2.92;;
59161;SDS011;44942;48.936;8.260;2024-03-02T03:16:12;2.83;;;2.53;;
59161;SDS011;44942;48.936;8.260;2024-03-02T03:21:12;2.90;;;2.60;;
59161;SDS011;44942;48.936;8.260;2024-03-02T03:26:13;2.93;;;2.60;;
59161;SDS011;44942;48.936;8.260;2024-03-02T03:31:14;3.00;;;2.30;;
59161;SDS011;44942;48.936;8.260;2024-03-02T03:36:14;2.70;;;2.50;;
59161;SDS011;44942;48.936;8.260;2024-03-02T03:41:15;3.00;;;2.67;;
59161;SDS011;44942;48.936;8.260;2024-03-02T03:46:15;2.50;;;2.22;;
59161;SDS011;44942;48.936;8.260;2024-03-02T03:51:16;2.70;;;2.50;;
59161;SDS011;44942;48.936;8.260;2024-03-02T03:56:16;3.47;;;2.50;;
59161;SDS011;44942;48.936;8.260;2024-03-02T04:01:17;2.40;;;2.20;;
59161;SDS011;44942;48.936;8.260;2024-03-02T04:06:18;2.70;;;2.50;;
59161;SDS011;44942;48.936;8.260;2024-03-02T04:11:18;3.17;;;2.50;;
59161;SDS011;44942;48.936;8.260;2024-03-02T04:16:19;3.40;;;2.47;;
59161;SDS011;44942;48.936;8.260;2024-03-02T04:21:20;2.80;;;2.47;;
59161;SDS011;44942;48.936;8.260;2024-03-02T04:26:20;3.10;;;2.50;;
59161;SDS011;44942;48.936;8.260;2024-03-02T04:31:22;3.00;;;2.70;;
59161;SDS011;44942;48.936;8.260;2024-03-02T04:36:22;2.90;;;2.60;;
59161;SDS011;44942;48.936;8.260;2024-03-02T04:41:23;2.50;;;2.30;;
59161;SDS011;44942;48.936;8.260;2024-03-02T04:46:24;2.73;;;2.53;;
59161;SDS011;44942;48.936;8.260;2024-03-02T04:51:24;2.53;;;2.20;;
59161;SDS011;44942;48.936;8.260;2024-03-02T04:56:25;2.30;;;2.10;;
59161;SDS011;44942;48.936;8.260;2024-03-02T05:01:32;2.35;;;2.10;;
59161;SDS011;44942;48.936;8.260;2024-03-02T05:06:33;2.53;;;2.33;;
59161;SDS011;44942;48.936;8.260;2024-03-02T05:11:34;3.53;;;2.27;;
59161;SDS011;44942;48.936;8.260;2024-03-02T05:16:37;2.60;;;2.25;;
59161;SDS011;44942;48.936;8.260;2024-03-02T05:21:41;3.10;;;2.20;;
59161;SDS011;44942;48.936;8.260;2024-03-02T05:26:42;2.33;;;2.13;;
59161;SDS011;44942;48.936;8.260;2024-03-02T05:36:44;2.20;;;2.00;;
59161;SDS011;44942;48.936;8.260;2024-03-02T05:41:47;2.10;;;1.90;;
59161;SDS011;44942;48.936;8.260;2024-03-02T05:46:48;2.28;;;2.08;;
59161;SDS011;44942;48.936;8.260;2024-03-02T05:51:48;2.40;;;2.00;;
59161;SDS011;44942;48.936;8.260;2024-03-02T05:56:49;3.20;;;2.90;;
59161;SDS011;44942;48.936;8.260;2024-03-02T06:01:49;2.80;;;2.50;;
59161;SDS011;44942;48.936;8.260;2024-03-02T06:06:53;2.50;;;2.30;;
59161;SDS011;44942;48.936;8.260;2024-03-02T06:11:54;2.55;;;2.35;;
59161;SDS011;44942;48.936;8.260;2024-03-02T06:16:54;2.63;;;2.40;;
59161;SDS011;44942;48.936;8.260;2024-03-02T06:21:56;2.38;;;2.17;;
59161;SDS011;44942;48.936;8.260;2024-03-02T06:26:56;2.10;;;1.90;;
59161;SDS011;44942;48.936;8.260;2024-03-02T06:31:57;2.10;;;1.90;;
59161;SDS011;44942;48.936;8.260;2024-03-02T06:36:57;2.67;;;2.23;;
59161;SDS011;44942;48.936;8.260;2024-03-02T06:41:58;2.47;;;2.27;;
59161;SDS011;44942;48.936;8.260;2024-03-02T06:46:58;2.13;;;1.93;;
59161;SDS011;44942;48.936;8.260;2024-03-02T06:51:59;2.10;;;1.90;;
59161;SDS011;44942;48.936;8.260;2024-03-02T06:57:02;2.43;;;2.13;;
59161;SDS011;44942;48.936;8.260;2024-03-02T07:02:03;2.53;;;2.03;;
59161;SDS011;44942;48.936;8.260;2024-03-02T07:07:04;2.22;;;1.98;;
59161;SDS011;44942;48.936;8.260;2024-03-02T07:12:05;2.17;;;1.90;;
59161;SDS011;44942;48.936;8.260;2024-03-02T07:17:06;2.40;;;1.95;;
59161;SDS011;44942;48.936;8.260;2024-03-02T07:22:06;3.40;;;2.03;;
59161;SDS011;44942;48.936;8.260;2024-03-02T07:27:11;2.50;;;2.10;;
59161;SDS011;44942;48.936;8.260;2024-03-02T07:32:12;2.13;;;1.92;;
59161;SDS011;44942;48.936;8.260;2024-03-02T07:37:13;3.40;;;2.00;;
59161;SDS011;44942;48.936;8.260;2024-03-02T07:42:13;2.47;;;1.87;;
59161;SDS011;44942;48.936;8.260;2024-03-02T07:47:14;2.97;;;1.63;;
59161;SDS011;44942;48.936;8.260;2024-03-02T07:52:15;1.97;;;1.83;;
59161;SDS011;44942;48.936;8.260;2024-03-02T07:57:15;2.57;;;2.00;;
59161;SDS011;44942;48.936;8.260;2024-03-02T08:02:16;3.20;;;1.77;;
59161;SDS011;44942;48.936;8.260;2024-03-02T08:07:17;3.35;;;2.00;;
59161;SDS011;44942;48.936;8.260;2024-03-02T08:12:17;3.83;;;2.00;;
59161;SDS011;44942;48.936;8.260;2024-03-02T08:17:19;4.55;;;2.10;;
59161;SDS011;44942;48.936;8.260;2024-03-02T08:22:20;4.00;;;2.00;;
59161;SDS011;44942;48.936;8.260;2024-03-02T08:27:20;2.83;;;2.30;;
59161;SDS011;44942;48.936;8.260;2024-03-02T08:32:21;3.53;;;2.20;;
59161;SDS011;44942;48.936;8.260;2024-03-02T08:37:22;2.40;;;2.20;;
59161;SDS011;44942;48.936;8.260;2024-03-02T08:42:23;2.47;;;2.10;;
59161;SDS011;44942;48.936;8.260;2024-03-02T08:47:24;3.10;;;2.10;;
59161;SDS011;44942;48.936;8.260;2024-03-02T08:52:24;3.03;;;2.13;;
59161;SDS011;44942;48.936;8.260;2024-03-02T08:57:25;5.23;;;3.00;;
59161;SDS011;44942;48.936;8.260;2024-03-02T09:02:26;6.90;;;4.00;;
59161;SDS011;44942;48.936;8.260;2024-03-02T09:07:26;8.02;;;5.20;;
59161;SDS011;44942;48.936;8.260;2024-03-02T09:12:27;8.63;;;5.70;;
59161;SDS011;44942;48.936;8.260;2024-03-02T09:17:28;16.70;;;6.63;;
59161;SDS011;44942;48.936;8.260;2024-03-02T09:22:32;13.05;;;6.72;;
59161;SDS011;44942;48.936;8.260;2024-03-02T09:27:32;10.77;;;6.97;;
59161;SDS011;44942;48.936;8.260;2024-03-02T09:32:33;12.37;;;7.33;;
59161;SDS011;44942;48.936;8.260;2024-03-02T09:37:33;11.97;;;7.57;;
59161;SDS011;44942;48.936;8.260;2024-03-02T09:42:34;15.50;;;7.40;;
59161;SDS011;44942;48.936;8.260;2024-03-02T09:47:35;16.20;;;7.10;;
59161;SDS011;44942;48.936;8.260;2024-03-02T09:52:39;12.35;;;7.22;;
59161;SDS011;44942;48.936;8.260;2024-03-02T09:57:41;11.27;;;6.55;;
59161;SDS011;44942;48.936;8.260;2024-03-02T10:02:42;10.43;;;6.10;;
59161;SDS011;44942;48.936;8.260;2024-03-02T10:07:43;11.65;;;6.50;;
59161;SDS011;44942;48.936;8.260;2024-03-02T10:13:04;12.07;;;6.90;;
59161;SDS011;44942;48.936;8.260;2024-03-02T10:18:11;10.95;;;6.65;;
59161;SDS011;44942;48.936;8.260;2024-03-02T10:23:13;9.25;;;6.20;;
59161;SDS011;44942;48.936;8.260;2024-03-02T10:28:16;11.95;;;6.13;;
59161;SDS011;44942;48.936;8.260;2024-03-02T10:33:18;13.88;;;6.93;;
59161;SDS011;44942;48.936;8.260;2024-03-02T10:38:18;10.13;;;6.18;;
59161;SDS011;44942;48.936;8.260;2024-03-02T10:43:20;10.98;;;6.55;;
59161;SDS011;44942;48.936;8.260;2024-03-02T10:48:21;11.15;;;6.43;;
59161;SDS011;44942;48.936;8.260;2024-03-02T10:53:23;11.35;;;6.55;;
59161;SDS011;44942;48.936;8.260;2024-03-02T10:58:24;9.27;;;6.23;;
59161;SDS011;44942;48.936;8.260;2024-03-02T11:03:27;11.25;;;6.53;;
59161;SDS011;44942;48.936;8.260;2024-03-02T11:08:35;10.68;;;6.65;;
59161;SDS011;44942;48.936;8.260;2024-03-02T11:13:39;12.82;;;6.45;;
59161;SDS011;44942;48.936;8.260;2024-03-02T11:18:46;9.98;;;6.45;;
59161;SDS011;44942;48.936;8.260;2024-03-02T11:23:49;11.63;;;6.15;;
59161;SDS011;44942;48.936;8.260;2024-03-02T11:28:50;11.47;;;6.07;;
59161;SDS011;44942;48.936;8.260;2024-03-02T11:33:51;10.85;;;5.82;;
59161;SDS011;44942;48.936;8.260;2024-03-02T11:38:52;10.18;;;5.38;;
59161;SDS011;44942;48.936;8.260;2024-03-02T11:43:53;12.00;;;5.88;;
59161;SDS011;44942;48.936;8.260;2024-03-02T11:48:54;12.23;;;5.83;;
59161;SDS011;44942;48.936;8.260;2024-03-02T11:53:54;9.77;;;5.27;;
59161;SDS011;44942;48.936;8.260;2024-03-02T11:58:56;10.25;;;5.32;;
59161;SDS011;44942;48.936;8.260;2024-03-02T12:03:58;8.98;;;5.15;;
59161;SDS011;44942;48.936;8.260;2024-03-02T12:08:59;11.43;;;5.20;;
59161;SDS011;44942;48.936;8.260;2024-03-02T12:14:00;12.95;;;5.13;;
59161;SDS011;44942;48.936;8.260;2024-03-02T12:19:01;8.03;;;4.33;;
59161;SDS011;44942;48.936;8.260;2024-03-02T12:24:02;8.48;;;4.20;;
59161;SDS011;44942;48.936;8.260;2024-03-02T12:29:02;10.00;;;4.33;;
59161;SDS011;44942;48.936;8.260;2024-03-02T12:34:03;9.60;;;4.23;;
59161;SDS011;44942;48.936;8.260;2024-03-02T12:39:04;5.82;;;4.00;;
59161;SDS011;44942;48.936;8.260;2024-03-02T12:44:05;9.63;;;4.07;;
59161;SDS011;44942;48.936;8.260;2024-03-02T12:54:10;7.30;;;3.30;;
59161;SDS011;44942;48.936;8.260;2024-03-02T12:59:17;5.27;;;3.20;;
59161;SDS011;44942;48.936;8.260;2024-03-02T13:04:25;6.13;;;3.20;;
59161;SDS011;44942;48.936;8.260;2024-03-02T13:09:28;7.68;;;2.90;;
59161;SDS011;44942;48.936;8.260;2024-03-02T13:14:31;6.60;;;2.97;;
59161;SDS011;44942;48.936;8.260;2024-03-02T13:19:35;4.53;;;2.80;;
59161;SDS011;44942;48.936;8.260;2024-03-02T13:24:36;3.87;;;2.70;;
59161;SDS011;44942;48.936;8.260;2024-03-02T13:29:36;3.20;;;2.23;;
59161;SDS011;44942;48.936;8.260;2024-03-02T13:34:37;4.77;;;2.70;;
59161;SDS011;44942;48.936;8.260;2024-03-02T13:39:38;6.20;;;2.73;;
59161;SDS011;44942;48.936;8.260;2024-03-02T13:44:45;5.53;;;2.42;;
59161;SDS011;44942;48.936;8.260;2024-03-02T13:49:48;3.72;;;2.38;;
59161;SDS011;44942;48.936;8.260;2024-03-02T13:54:49;5.25;;;2.50;;
59161;SDS011;44942;48.936;8.260;2024-03-02T13:59:52;3.28;;;1.92;;
59161;SDS011;44942;48.936;8.260;2024-03-02T14:04:53;3.83;;;2.00;;
59161;SDS011;44942;48.936;8.260;2024-03-02T14:09:53;2.87;;;1.60;;
59161;SDS011;44942;48.936;8.260;2024-03-02T14:14:54;15.57;;;2.47;;
59161;SDS011;44942;48.936;8.260;2024-03-02T14:19:58;4.78;;;1.45;;
59161;SDS011;44942;48.936;8.260;2024-03-02T14:25:01;4.25;;;1.40;;
59161;SDS011;44942;48.936;8.260;2024-03-02T14:30:02;1.90;;;1.30;;
59161;SDS011;44942;48.936;8.260;2024-03-02T14:35:03;1.63;;;1.10;;
59161;SDS011;44942;48.936;8.260;2024-03-02T14:40:04;3.42;;;1.20;;
59161;SDS011;44942;48.936;8.260;2024-03-02T14:45:06;2.60;;;1.15;;
59161;SDS011;44942;48.936;8.260;2024-03-02T14:50:07;3.20;;;1.30;;
59161;SDS011;44942;48.936;8.260;2024-03-02T14:55:09;1.52;;;1.13;;
59161;SDS011;44942;48.936;8.260;2024-03-02T15:00:10;2.07;;;1.20;;
59161;SDS011;44942;48.936;8.260;2024-03-02T15:05:11;3.40;;;1.30;;
59161;SDS011;44942;48.936;8.260;2024-03-02T15:10:12;2.83;;;1.37;;
59161;SDS011;44942;48.936;8.260;2024-03-02T15:15:12;2.47;;;1.10;;
59161;SDS011;44942;48.936;8.260;2024-03-02T15:20:13;2.27;;;0.83;;
59161;SDS011;44942;48.936;8.260;2024-03-02T15:25:13;1.43;;;1.00;;
59161;SDS011;44942;48.936;8.260;2024-03-02T15:30:16;19.45;;;6.82;;
59161;SDS011;44942;48.936;8.260;2024-03-02T15:35:16;28.35;;;9.95;;
59161;SDS011;44942;48.936;8.260;2024-03-02T15:40:17;25.45;;;9.07;;
59161;SDS011;44942;48.936;8.260;2024-03-02T15:45:18;19.67;;;8.20;;
59161;SDS011;44942;48.936;8.260;2024-03-02T15:50:18;21.37;;;7.83;;
59161;SDS011;44942;48.936;8.260;2024-03-02T15:55:19;18.23;;;7.30;;
59161;SDS011;44942;48.936;8.260;2024-03-02T16:00:19;15.03;;;5.97;;
59161;SDS011;44942;48.936;8.260;2024-03-02T16:05:21;14.50;;;6.35;;
59161;SDS011;44942;48.936;8.260;2024-03-02T16:10:22;14.27;;;6.87;;
59161;SDS011;44942;48.936;8.260;2024-03-02T16:15:24;12.93;;;6.40;;
59161;SDS011;44942;48.936;8.260;2024-03-02T16:20:24;13.60;;;6.50;;
59161;SDS011;44942;48.936;8.260;2024-03-02T16:25:25;18.77;;;6.60;;
59161;SDS011;44942;48.936;8.260;2024-03-02T16:30:26;16.77;;;7.18;;
59161;SDS011;44942;48.936;8.260;2024-03-02T16:35:26;20.93;;;8.77;;
59161;SDS011;44942;48.936;8.260;2024-03-02T16:40:27;24.50;;;11.47;;
59161;SDS011;44942;48.936;8.260;2024-03-02T16:45:28;23.63;;;10.65;;
59161;SDS011;44942;48.936;8.260;2024-03-02T16:50:30;23.30;;;10.70;;
59161;SDS011;44942;48.936;8.260;2024-03-02T16:55:30;24.50;;;11.03;;
59161;SDS011;44942;48.936;8.260;2024-03-02T17:00:31;24.23;;;11.13;;
59161;SDS011;44942;48.936;8.260;2024-03-02T17:05:31;20.40;;;9.90;;
59161;SDS011;44942;48.936;8.260;2024-03-02T17:10:32;22.30;;;9.30;;
59161;SDS011;44942;48.936;8.260;2024-03-02T17:15:33;22.50;;;9.00;;
59161;SDS011;44942;48.936;8.260;2024-03-02T17:20:33;18.50;;;9.53;;
59161;SDS011;44942;48.936;8.260;2024-03-02T17:25:34;18.87;;;8.43;;
59161;SDS011;44942;48.936;8.260;2024-03-02T17:30:35;15.57;;;8.53;;
59161;SDS011;44942;48.936;8.260;2024-03-02T17:35:35;17.40;;;8.47;;
59161;SDS011;44942;48.936;8.260;2024-03-02T17:40:36;17.60;;;8.87;;
59161;SDS011;44942;48.936;8.260;2024-03-02T17:45:36;14.13;;;7.40;;
59161;SDS011;44942;48.936;8.260;2024-03-02T17:50:37;13.95;;;7.50;;
59161;SDS011;44942;48.936;8.260;2024-03-02T17:55:38;14.27;;;7.93;;
59161;SDS011;44942;48.936;8.260;2024-03-02T18:00:38;14.90;;;7.20;;
59161;SDS011;44942;48.936;8.260;2024-03-02T18:05:40;16.60;;;7.20;;
59161;SDS011;44942;48.936;8.260;2024-03-02T18:10:41;13.97;;;7.00;;
59161;SDS011;44942;48.936;8.260;2024-03-02T18:15:42;12.80;;;6.67;;
59161;SDS011;44942;48.936;8.260;2024-03-02T18:20:42;12.40;;;6.40;;
59161;SDS011;44942;48.936;8.260;2024-03-02T18:25:44;14.20;;;6.80;;
59161;SDS011;44942;48.936;8.260;2024-03-02T18:30:47;12.88;;;6.53;;
59161;SDS011;44942;48.936;8.260;2024-03-02T18:35:47;13.60;;;6.25;;
59161;SDS011;44942;48.936;8.260;2024-03-02T18:40:48;11.63;;;5.70;;
59161;SDS011;44942;48.936;8.260;2024-03-02T18:45:49;12.60;;;6.03;;
59161;SDS011;44942;48.936;8.260;2024-03-02T18:50:49;14.70;;;5.80;;
59161;SDS011;44942;48.936;8.260;2024-03-02T18:55:50;14.80;;;5.80;;
59161;SDS011;44942;48.936;8.260;2024-03-02T19:00:50;11.23;;;5.53;;
59161;SDS011;44942;48.936;8.260;2024-03-02T19:05:51;11.60;;;5.60;;
59161;SDS011;44942;48.936;8.260;2024-03-02T19:10:51;13.43;;;5.50;;
59161;SDS011;44942;48.936;8.260;2024-03-02T19:15:53;11.85;;;5.28;;
59161;SDS011;44942;48.936;8.260;2024-03-02T19:20:53;10.13;;;5.00;;
59161;SDS011;44942;48.936;8.260;2024-03-02T19:25:54;11.80;;;5.30;;
59161;SDS011;44942;48.936;8.260;2024-03-02T19:30:56;11.05;;;5.00;;
59161;SDS011;44942;48.936;8.260;2024-03-02T19:35:57;11.07;;;4.77;;
59161;SDS011;44942;48.936;8.260;2024-03-02T19:40:57;10.20;;;5.03;;
59161;SDS011;44942;48.936;8.260;2024-03-02T19:45:58;10.00;;;4.87;;
59161;SDS011;44942;48.936;8.260;2024-03-02T19:50:58;11.00;;;4.97;;
59161;SDS011;44942;48.936;8.260;2024-03-02T19:55:59;7.27;;;4.30;;
59161;SDS011;44942;48.936;8.260;2024-03-02T20:01:00;7.87;;;4.40;;
59161;SDS011;44942;48.936;8.260;2024-03-02T20:06:00;9.03;;;4.60;;
59161;SDS011;44942;48.936;8.260;2024-03-02T20:11:04;7.23;;;4.40;;
59161;SDS011;44942;48.936;8.260;2024-03-02T20:16:07;8.07;;;4.10;;
59161;SDS011;44942;48.936;8.260;2024-03-02T20:21:08;8.50;;;3.80;;
59161;SDS011;44942;48.936;8.260;2024-03-02T20:26:09;6.13;;;3.90;;
59161;SDS011;44942;48.936;8.260;2024-03-02T20:31:09;7.90;;;4.07;;
59161;SDS011;44942;48.936;8.260;2024-03-02T20:36:11;4.93;;;3.40;;
59161;SDS011;44942;48.936;8.260;2024-03-02T20:41:14;7.13;;;3.40;;
59161;SDS011;44942;48.936;8.260;2024-03-02T20:46:16;6.13;;;3.22;;
59161;SDS011;44942;48.936;8.260;2024-03-02T20:51:16;5.83;;;3.40;;
59161;SDS011;44942;48.936;8.260;2024-03-02T20:56:17;5.57;;;3.20;;
59161;SDS011;44942;48.936;8.260;2024-03-02T21:01:17;6.67;;;3.43;;
59161;SDS011;44942;48.936;8.260;2024-03-02T21:06:18;5.47;;;3.33;;
59161;SDS011;44942;48.936;8.260;2024-03-02T21:11:19;6.03;;;3.13;;
59161;SDS011;44942;48.936;8.260;2024-03-02T21:16:21;5.07;;;3.20;;
59161;SDS011;44942;48.936;8.260;2024-03-02T21:21:22;5.37;;;3.20;;
59161;SDS011;44942;48.936;8.260;2024-03-02T21:26:23;4.63;;;2.90;;
59161;SDS011;44942;48.936;8.260;2024-03-02T21:31:23;4.43;;;2.90;;
59161;SDS011;44942;48.936;8.260;2024-03-02T21:36:24;4.90;;;3.07;;
59161;SDS011;44942;48.936;8.260;2024-03-02T21:41:24;9.10;;;3.30;;
59161;SDS011;44942;48.936;8.260;2024-03-02T21:46:25;12.30;;;3.40;;
59161;SDS011;44942;48.936;8.260;2024-03-02T21:51:26;7.97;;;3.38;;
59161;SDS011;44942;48.936;8.260;2024-03-02T21:56:27;9.38;;;5.45;;
59161;SDS011;44942;48.936;8.260;2024-03-02T22:01:27;8.07;;;5.00;;
59161;SDS011;44942;48.936;8.260;2024-03-02T22:06:28;9.80;;;4.47;;
59161;SDS011;44942;48.936;8.260;2024-03-02T22:11:29;7.80;;;4.10;;
59161;SDS011;44942;48.936;8.260;2024-03-02T22:16:29;6.90;;;4.03;;
59161;SDS011;44942;48.936;8.260;2024-03-02T22:21:30;5.77;;;3.30;;
59161;SDS011;44942;48.936;8.260;2024-03-02T22:26:30;7.70;;;3.50;;
59161;SDS011;44942;48.936;8.260;2024-03-02T22:31:31;5.90;;;2.90;;
59161;SDS011;44942;48.936;8.260;2024-03-02T22:36:31;5.85;;;3.42;;
59161;SDS011;44942;48.936;8.260;2024-03-02T22:41:32;4.57;;;2.77;;
59161;SDS011;44942;48.936;8.260;2024-03-02T22:46:33;4.60;;;2.80;;
59161;SDS011;44942;48.936;8.260;2024-03-02T22:51:33;5.37;;;2.70;;
59161;SDS011;44942;48.936;8.260;2024-03-02T22:56:34;5.80;;;5.10;;
59161;SDS011;44942;48.936;8.260;2024-03-02T23:01:34;7.20;;;4.53;;
59161;SDS011;44942;48.936;8.260;2024-03-02T23:06:35;6.00;;;4.40;;
59161;SDS011;44942;48.936;8.260;2024-03-02T23:11:36;4.32;;;3.58;;
59161;SDS011;44942;48.936;8.260;2024-03-02T23:16:37;6.65;;;3.40;;
59161;SDS011;44942;48.936;8.260;2024-03-02T23:21:44;3.88;;;3.10;;
59161;SDS011;44942;48.936;8.260;2024-03-02T23:26:46;3.92;;;3.00;;
59161;SDS011;44942;48.936;8.260;2024-03-02T23:31:47;3.67;;;2.50;;
59161;SDS011;44942;48.936;8.260;2024-03-02T23:36:48;4.50;;;2.40;;
59161;SDS011;44942;48.936;8.260;2024-03-02T23:41:48;3.77;;;2.80;;
59161;SDS011;44942;48.936;8.260;2024-03-02T23:46:49;4.60;;;2.90;;
59161;SDS011;44942;48.936;8.260;2024-03-02T23:51:49;3.87;;;2.43;;
59161;SDS011;44942;48.936;8.260;2024-03-02T23:56:50;6.87;;;5.83;;
